Latest Weather Observations for Spitfire Channel

IDQ60801

Issued at 7:02 am EST Saturday 31 January 2015 (issued every 30 minutes, with the page automatically refreshed every 10 minutes)

About weather observations | Map of weather stations | Latest weather observations for QLD | Other Formats
Station Details ID: 040927 Name: SPITFIRE CHANNEL BEACON Lat: -27.05 Lon: 153.27 Height: 7.0 m
Data from the previous 72 hours. | See also: Recent months for locations in Queensland
Date/Time
EST
Temp
°C
App
Temp
°C
Dew
Point
Rel
Hum
%
Delta-T
°C
Wind Press
QNH
hPa
Press
MSL
hPa
Rain
since 9 am
mm
Dir
 
Spd
km/h
Gust
km/h
Spd
kts
Gust
kts
31/07:00am - - - - - NW 9 11 5 6 - - -
31/06:30am - - - - - NW 11 15 6 8 - - -
31/06:00am - - - - - NW 13 15 7 8 - - -
31/05:30am - - - - - WNW 15 19 8 10 - - -
31/05:00am - - - - - WNW 22 26 12 14 - - -
31/04:30am - - - - - NW 26 32 14 17 - - -
31/04:00am - - - - - NW 26 30 14 16 - - -
31/03:30am - - - - - NW 28 32 15 17 - - -
31/03:00am - - - - - NW 30 32 16 17 - - -
31/02:30am - - - - - NNW 28 33 15 18 - - -
31/02:00am - - - - - NNW 28 33 15 18 - - -
31/01:30am - - - - - NW 26 30 14 16 - - -
31/01:00am - - - - - NW 28 32 15 17 - - -
31/12:30am - - - - - NNW 26 32 14 17 - - -
31/12:00am - - - - - NW 26 30 14 16 - - -
 
Date/Time
EST
Temp
°C
App
Temp
°C
Dew
Point
Rel
Hum
%
Delta-T
°C
Wind Press
QNH
hPa
Press
MSL
hPa
Rain
since 9 am
mm
Dir
 
Spd
km/h
Gust
km/h
Spd
kts
Gust
kts
30/11:30pm - - - - - NW 26 32 14 17 - - -
30/11:00pm - - - - - NW 26 30 14 16 - - -
30/10:30pm - - - - - NW 26 30 14 16 - - -
30/10:00pm - - - - - NNW 26 32 14 17 - - -
30/09:30pm - - - - - NNW 26 30 14 16 - - -
30/09:00pm - - - - - NNW 26 32 14 17 - - -
30/08:30pm - - - - - NNW 26 30 14 16 - - -
30/08:00pm - - - - - N 22 28 12 15 - - -
30/07:30pm - - - - - N 22 28 12 15 - - -
30/07:00pm - - - - - N 26 28 14 15 - - -
30/06:30pm - - - - - N 22 28 12 15 - - -
30/06:00pm - - - - - N 20 24 11 13 - - -
30/05:30pm - - - - - N 24 28 13 15 - - -
30/05:00pm - - - - - N 20 24 11 13 - - -
30/04:30pm - - - - - N 20 28 11 15 - - -
30/04:00pm - - - - - N 22 28 12 15 - - -
30/03:30pm - - - - - N 22 28 12 15 - - -
30/03:00pm - - - - - NNE 22 24 12 13 - - -
30/02:30pm - - - - - N 19 24 10 13 - - -
30/02:00pm - - - - - N 19 22 10 12 - - -
30/01:30pm - - - - - N 19 20 10 11 - - -
30/01:00pm - - - - - N 15 19 8 10 - - -
30/12:30pm - - - - - N 15 17 8 9 - - -
30/12:00pm - - - - - N 13 17 7 9 - - -
30/11:30am - - - - - NNE 15 20 8 11 - - -
30/11:00am - - - - - NNE 15 19 8 10 - - -
30/10:30am - - - - - NNE 15 19 8 10 - - -
30/10:00am - - - - - NNE 17 20 9 11 - - -
30/09:30am - - - - - E 9 11 5 6 - - -
30/09:00am - - - - - E 11 15 6 8 - - -
30/08:30am - - - - - SSE 7 9 4 5 - - -
30/08:00am - - - - - SSE 7 11 4 6 - - -
30/07:30am - - - - - E 2 6 1 3 - - -
30/07:00am - - - - - SE 7 13 4 7 - - -
30/06:30am - - - - - E 9 11 5 6 - - -
30/06:00am - - - - - ESE 9 13 5 7 - - -
30/05:30am - - - - - ESE 11 17 6 9 - - -
30/05:00am - - - - - E 19 24 10 13 - - -
30/04:30am - - - - - ESE 22 26 12 14 - - -
30/04:00am - - - - - ESE 20 28 11 15 - - -
30/03:30am - - - - - ESE 26 32 14 17 - - -
30/03:00am - - - - - SE 28 33 15 18 - - -
30/02:30am - - - - - SE 28 32 15 17 - - -
30/02:00am - - - - - E 13 17 7 9 - - -
30/01:30am - - - - - E 20 22 11 12 - - -
30/01:00am - - - - - E 20 26 11 14 - - -
30/12:30am - - - - - E 20 24 11 13 - - -
30/12:00am - - - - - E 22 26 12 14 - - -
 
Date/Time
EST
Temp
°C
App
Temp
°C
Dew
Point
Rel
Hum
%
Delta-T
°C
Wind Press
QNH
hPa
Press
MSL
hPa
Rain
since 9 am
mm
Dir
 
Spd
km/h
Gust
km/h
Spd
kts
Gust
kts
29/11:30pm - - - - - E 24 28 13 15 - - -
29/11:00pm - - - - - E 22 26 12 14 - - -
29/10:30pm - - - - - E 22 32 12 17 - - -
29/10:00pm - - - - - ENE 17 20 9 11 - - -
29/09:30pm - - - - - ENE 13 17 7 9 - - -
29/09:00pm - - - - - ENE 13 19 7 10 - - -
29/08:30pm - - - - - E 17 19 9 10 - - -
29/08:00pm - - - - - E 19 22 10 12 - - -
29/07:30pm - - - - - E 20 24 11 13 - - -
29/07:00pm - - - - - ESE 20 24 11 13 - - -
29/06:30pm - - - - - E 22 28 12 15 - - -
29/06:00pm - - - - - E 26 30 14 16 - - -
29/05:30pm - - - - - ESE 26 33 14 18 - - -
29/05:00pm - - - - - ESE 28 35 15 19 - - -
29/04:30pm - - - - - ESE 28 33 15 18 - - -
29/04:00pm - - - - - ESE 26 33 14 18 - - -
29/03:30pm - - - - - ESE 24 28 13 15 - - -
29/03:00pm - - - - - ESE 24 30 13 16 - - -
29/02:30pm - - - - - ESE 24 30 13 16 - - -
29/02:00pm - - - - - ESE 24 28 13 15 - - -
29/01:30pm - - - - - ESE 26 32 14 17 - - -
29/01:00pm - - - - - ESE 26 33 14 18 - - -
29/12:30pm - - - - - ESE 26 39 14 21 - - -
29/12:00pm - - - - - SE 26 32 14 17 - - -
29/11:30am - - - - - SE 22 30 12 16 - - -
29/11:00am - - - - - SE 26 32 14 17 - - -
29/10:30am - - - - - SE 28 35 15 19 - - -
29/10:00am - - - - - SSE 28 37 15 20 - - -
29/09:30am - - - - - SSE 26 32 14 17 - - -
29/09:00am - - - - - SSE 22 32 12 17 - - -
29/08:30am - - - - - SSE 22 28 12 15 - - -
29/08:00am - - - - - S 24 30 13 16 - - -
29/07:30am - - - - - SSE 26 33 14 18 - - -
29/07:00am - - - - - S 26 35 14 19 - - -
29/06:30am - - - - - SSE 28 33 15 18 - - -
29/06:00am - - - - - SSE 26 33 14 18 - - -
29/05:30am - - - - - SSE 26 32 14 17 - - -
29/05:00am - - - - - SSE 26 32 14 17 - - -
29/04:30am - - - - - SSE 28 33 15 18 - - -
29/04:00am - - - - - SSE 30 35 16 19 - - -
29/03:30am - - - - - SSE 26 35 14 19 - - -
29/03:00am - - - - - SSE 28 35 15 19 - - -
29/02:30am - - - - - SSE 32 41 17 22 - - -
29/02:00am - - - - - SSE 28 35 15 19 - - -
29/01:30am - - - - - SSE 32 39 17 21 - - -
29/01:00am - - - - - SSE 33 43 18 23 - - -
29/12:30am - - - - - SSE 35 44 19 24 - - -
29/12:00am - - - - - SSE 33 41 18 22 - - -
 
Date/Time
EST
Temp
°C
App
Temp
°C
Dew
Point
Rel
Hum
%
Delta-T
°C
Wind Press
QNH
hPa
Press
MSL
hPa
Rain
since 9 am
mm
Dir
 
Spd
km/h
Gust
km/h
Spd
kts
Gust
kts
28/11:30pm - - - - - SSE 33 41 18 22 - - -
28/11:00pm - - - - - SSE 39 46 21 25 - - -
28/10:30pm - - - - - SSE 39 46 21 25 - - -
28/10:00pm - - - - - SSE 37 46 20 25 - - -
28/09:30pm - - - - - SSE 41 50 22 27 - - -
28/09:00pm - - - - - SSE 39 48 21 26 - - -
28/08:30pm - - - - - SSE 41 50 22 27 - - -
28/08:00pm - - - - - SE 39 46 21 25 - - -
28/07:30pm - - - - - SE 39 46 21 25 - - -
28/07:00pm - - - - - SE 35 44 19 24 - - -
28/06:30pm - - - - - SE 33 43 18 23 - - -
28/06:00pm - - - - - SE 37 44 20 24 - - -
28/05:30pm - - - - - SE 39 44 21 24 - - -
28/05:00pm - - - - - SE 33 39 18 21 - - -
28/04:30pm - - - - - SE 33 39 18 21 - - -
28/04:00pm - - - - - SE 35 44 19 24 - - -
28/03:30pm - - - - - SE 37 44 20 24 - - -
28/03:00pm - - - - - SE 33 41 18 22 - - -
28/02:30pm - - - - - SE 33 41 18 22 - - -
28/02:00pm - - - - - SE 35 43 19 23 - - -
28/01:30pm - - - - - SE 32 37 17 20 - - -
28/01:00pm - - - - - SSE 30 35 16 19 - - -
28/12:30pm - - - - - SE 32 37 17 20 - - -
28/12:00pm - - - - - SSE 32 39 17 21 - - -
28/11:30am - - - - - SSE 30 35 16 19 - - -
28/11:00am - - - - - SSE 32 39 17 21 - - -
28/10:30am - - - - - SSE 32 37 17 20 - - -
28/10:00am - - - - - SSE 33 39 18 21 - - -
28/09:30am - - - - - SSE 33 41 18 22 - - -
28/09:00am - - - - - SE 32 39 17 21 - - -
28/08:30am - - - - - SSE 24 30 13 16 - - -
28/08:00am - - - - - SSE 24 30 13 16 - - -
28/07:30am - - - - - SSE 28 33 15 18 - - -

Other Formats:

Comma delimited format used in spreadsheet applications
http://www.bom.gov.au/fwo/IDQ60801/IDQ60801.94581.axf

JavaScript Object Notation format (JSON) in row-major order
http://www.bom.gov.au/fwo/IDQ60801/IDQ60801.94581.json